Time;durP1;ratioP1;P1;durP2;ratioP2;P2;SDS_P1;SDS_P2;PMS_P1;PMS_P2;Temp;Humidity;BMP_temperature;BMP_pressure;BME280_temperature;BME280_humidity;BME280_pressure;Samples;Min_cycle;Max_cycle;Signal;HPM_P1;HPM_P2
2021/08/12 00:02:01;;;;;;;;;;;14.60;91.00;;;;;;4993922;28;19960;-72
2021/08/12 00:04:28;;;;;;;;;;;14.60;91.00;;;;;;4994873;28;19961;-71
2021/08/12 00:06:54;;;;;;;;;;;14.60;91.10;;;;;;4994767;28;19925;-71
2021/08/12 00:09:19;;;;;;;;;;;14.60;91.10;;;;;;4994869;28;19964;-70
2021/08/12 00:11:45;;;;;;;;;;;14.60;91.20;;;;;;4994351;28;19988;-71
2021/08/12 00:14:10;;;;;;;;;;;14.50;91.20;;;;;;4994863;28;19945;-71
2021/08/12 00:16:36;;;;;;;;;;;14.50;91.20;;;;;;4994358;28;19918;-70
2021/08/12 00:19:02;;;;;;;;;;;14.50;91.20;;;;;;4994660;28;19977;-71
2021/08/12 00:21:27;;;;;;;;;;;14.50;91.30;;;;;;4994727;28;19968;-71
2021/08/12 00:23:53;;;;;;;;;;;14.50;91.30;;;;;;4994239;28;20405;-71
2021/08/12 00:26:19;;;;;;;;;;;14.50;91.30;;;;;;4994741;28;19918;-70
2021/08/12 00:28:44;;;;;;;;;;;14.50;91.40;;;;;;4992906;28;20060;-70
2021/08/12 00:31:10;;;;;;;;;;;14.40;91.40;;;;;;4994088;28;20440;-70
2021/08/12 00:33:36;;;;;;;;;;;14.40;91.40;;;;;;4993194;28;19925;-71
2021/08/12 00:36:02;;;;;;;;;;;14.30;91.40;;;;;;4994479;28;19929;-71
2021/08/12 00:38:27;;;;;;;;;;;14.30;91.70;;;;;;4992592;28;19965;-69
2021/08/12 00:40:54;;;;;;;;;;;14.30;91.50;;;;;;4993024;28;19972;-70
2021/08/12 00:43:21;;;;;;;;;;;14.30;91.50;;;;;;4992713;28;20313;-70
2021/08/12 00:45:47;;;;;;;;;;;14.30;91.50;;;;;;4992989;28;19925;-71
2021/08/12 00:48:12;;;;;;;;;;;14.20;91.50;;;;;;4992817;28;19918;-70
2021/08/12 00:50:42;;;;;;;;;;;14.30;91.60;;;;;;4992518;28;19997;-69
2021/08/12 00:53:09;;;;;;;;;;;14.20;91.60;;;;;;4992717;28;19957;-71
2021/08/12 00:55:36;;;;;;;;;;;14.20;91.70;;;;;;4991656;28;19918;-70
2021/08/12 00:58:02;;;;;;;;;;;14.20;91.70;;;;;;4992311;28;19921;-71
2021/08/12 01:00:28;;;;;;;;;;;14.10;91.70;;;;;;5009377;28;19925;-62
2021/08/12 01:02:54;;;;;;;;;;;14.10;91.70;;;;;;4992354;28;19968;-63
2021/08/12 01:05:19;;;;;;;;;;;14.10;91.80;;;;;;4992638;28;19925;-62
2021/08/12 01:07:52;;;;;;;;;;;14.10;91.80;;;;;;4992322;28;19968;-62
2021/08/12 01:10:20;;;;;;;;;;;14.10;91.80;;;;;;4993683;28;19925;-62
2021/08/12 01:12:54;;;;;;;;;;;14.10;91.90;;;;;;4976280;28;20455;-62
2021/08/12 01:15:40;;;;;;;;;;;14.10;91.90;;;;;;5008514;28;19954;-61
2021/08/12 01:18:25;;;;;;;;;;;14.00;91.90;;;;;;4992183;28;19918;-62
2021/08/12 01:21:11;;;;;;;;;;;14.00;91.90;;;;;;5008354;28;20021;-61
2021/08/12 01:23:38;;;;;;;;;;;14.00;92.00;;;;;;4992235;28;19957;-62
2021/08/12 01:26:04;;;;;;;;;;;14.00;92.00;;;;;;4991663;28;19960;-62
2021/08/12 01:28:31;;;;;;;;;;;13.90;92.00;;;;;;4993039;28;19918;-62
2021/08/12 01:31:06;;;;;;;;;;;13.90;92.00;;;;;;4991819;28;20338;-63
2021/08/12 01:33:42;;;;;;;;;;;13.90;92.30;;;;;;4992069;28;20012;-63
2021/08/12 01:36:07;;;;;;;;;;;13.90;92.10;;;;;;4991690;28;19918;-61
2021/08/12 01:38:36;;;;;;;;;;;13.90;92.10;;;;;;4991766;28;19945;-60
2021/08/12 01:41:03;;;;;;;;;;;13.80;92.10;;;;;;4992042;28;19918;-61
2021/08/12 01:43:29;;;;;;;;;;;13.80;92.20;;;;;;5007829;28;19972;-62
2021/08/12 01:46:04;;;;;;;;;;;13.80;92.20;;;;;;4991892;28;19918;-60
2021/08/12 01:48:31;;;;;;;;;;;13.80;92.20;;;;;;4991043;28;19918;-62
2021/08/12 01:50:57;;;;;;;;;;;13.80;92.20;;;;;;5007993;28;19914;-63
2021/08/12 01:53:24;;;;;;;;;;;13.70;92.20;;;;;;4991680;28;19926;-64
2021/08/12 01:55:50;;;;;;;;;;;13.80;92.30;;;;;;4991277;28;19918;-62
2021/08/12 01:58:17;;;;;;;;;;;13.80;92.30;;;;;;4991380;28;19925;-62
2021/08/12 02:00:49;;;;;;;;;;;13.70;92.30;;;;;;4975040;28;19945;-62
2021/08/12 02:03:16;;;;;;;;;;;13.70;92.30;;;;;;4992738;28;20029;-62
2021/08/12 02:05:44;;;;;;;;;;;13.70;92.40;;;;;;4991094;28;20374;-61
2021/08/12 02:08:10;;;;;;;;;;;13.70;92.40;;;;;;4992334;28;19918;-62
2021/08/12 02:10:35;;;;;;;;;;;13.60;92.40;;;;;;4992681;28;19980;-62
2021/08/12 02:13:02;;;;;;;;;;;13.70;92.40;;;;;;4991131;28;20164;-61
2021/08/12 02:15:28;;;;;;;;;;;13.70;92.50;;;;;;4975360;28;19914;-62
2021/08/12 02:17:54;;;;;;;;;;;13.60;92.50;;;;;;4991071;28;19918;-62
2021/08/12 02:20:19;;;;;;;;;;;13.60;92.50;;;;;;4990814;28;19918;-62
2021/08/12 02:22:48;;;;;;;;;;;13.60;92.50;;;;;;4991306;28;19925;-62
2021/08/12 02:25:33;;;;;;;;;;;13.60;92.50;;;;;;4974751;28;19918;-63
2021/08/12 02:28:02;;;;;;;;;;;13.60;92.50;;;;;;4990922;28;20489;-62
2021/08/12 02:30:30;;;;;;;;;;;13.60;92.50;;;;;;4990782;28;19922;-61
2021/08/12 02:32:55;;;;;;;;;;;13.50;92.60;;;;;;4991016;28;20408;-63
2021/08/12 02:35:23;;;;;;;;;;;13.50;92.60;;;;;;4992446;28;19921;-62
2021/08/12 02:37:50;;;;;;;;;;;13.50;92.60;;;;;;5006733;28;20001;-62
2021/08/12 02:40:16;;;;;;;;;;;13.50;92.60;;;;;;4990958;28;19922;-63
2021/08/12 02:42:43;;;;;;;;;;;13.50;92.60;;;;;;4972346;28;19931;-63
2021/08/12 02:45:09;;;;;;;;;;;13.50;92.60;;;;;;4972876;28;20375;-62
2021/08/12 02:47:35;;;;;;;;;;;13.50;92.70;;;;;;4972597;28;19923;-62
2021/08/12 02:50:02;;;;;;;;;;;13.40;92.70;;;;;;4972499;28;19938;-62
2021/08/12 02:52:29;;;;;;;;;;;13.40;92.70;;;;;;4987742;28;20214;-62
2021/08/12 02:54:55;;;;;;;;;;;13.40;92.80;;;;;;4971105;28;19925;-60
2021/08/12 02:57:21;;;;;;;;;;;13.40;92.70;;;;;;4972609;28;19918;-63
2021/08/12 02:59:47;;;;;;;;;;;13.40;92.70;;;;;;4987636;28;20462;-62
2021/08/12 03:02:16;;;;;;;;;;;13.40;92.80;;;;;;4970976;28;19918;-63
2021/08/12 03:04:42;;;;;;;;;;;13.40;92.80;;;;;;4972768;28;19918;-62
2021/08/12 03:07:08;;;;;;;;;;;13.40;92.80;;;;;;4971205;28;19957;-62
2021/08/12 03:09:35;;;;;;;;;;;13.40;92.90;;;;;;4974286;28;19925;-62
2021/08/12 03:12:01;;;;;;;;;;;13.40;92.90;;;;;;4990739;28;19922;-62
2021/08/12 03:14:30;;;;;;;;;;;13.40;92.90;;;;;;4990366;28;19948;-62
2021/08/12 03:16:57;;;;;;;;;;;13.40;92.90;;;;;;4990343;28;19924;-60
2021/08/12 03:19:23;;;;;;;;;;;13.40;92.90;;;;;;4993880;28;19925;-62
2021/08/12 03:21:58;;;;;;;;;;;13.30;92.90;;;;;;4994126;28;19917;-61
2021/08/12 03:24:24;;;;;;;;;;;13.30;92.90;;;;;;4994559;28;19918;-61
2021/08/12 03:26:54;;;;;;;;;;;13.30;93.00;;;;;;4993738;28;19925;-62
2021/08/12 03:29:21;;;;;;;;;;;13.30;93.00;;;;;;5010606;28;20378;-62
2021/08/12 03:31:47;;;;;;;;;;;13.30;93.00;;;;;;4995153;28;19929;-60
2021/08/12 03:34:12;;;;;;;;;;;13.30;93.00;;;;;;4995476;28;19965;-61
2021/08/12 03:36:38;;;;;;;;;;;13.30;93.00;;;;;;4994254;28;19925;-60
2021/08/12 03:39:04;;;;;;;;;;;13.30;93.00;;;;;;4994414;28;19953;-61
2021/08/12 03:41:29;;;;;;;;;;;13.30;93.10;;;;;;4994596;28;19980;-61
2021/08/12 03:43:55;;;;;;;;;;;13.30;93.10;;;;;;4995681;28;20279;-62
2021/08/12 03:46:22;;;;;;;;;;;13.30;93.20;;;;;;4993688;28;19984;-61
2021/08/12 03:48:48;;;;;;;;;;;13.30;93.30;;;;;;4993846;28;20349;-61
2021/08/12 03:51:13;;;;;;;;;;;13.30;93.40;;;;;;4993661;28;19918;-62
2021/08/12 03:53:39;;;;;;;;;;;13.30;93.50;;;;;;4994168;28;19921;-62
2021/08/12 03:56:05;;;;;;;;;;;13.40;93.50;;;;;;4993703;28;19913;-62
2021/08/12 03:58:32;;;;;;;;;;;13.40;93.50;;;;;;4993164;28;19968;-63
2021/08/12 04:00:57;;;;;;;;;;;13.40;93.40;;;;;;4993776;28;19925;-62
2021/08/12 04:03:23;;;;;;;;;;;13.40;93.40;;;;;;4993806;28;19972;-62
2021/08/12 04:05:49;;;;;;;;;;;13.40;93.40;;;;;;4994669;28;20267;-62
2021/08/12 04:08:15;;;;;;;;;;;13.40;93.50;;;;;;4993443;28;19918;-61
2021/08/12 04:10:42;;;;;;;;;;;13.50;93.50;;;;;;4993206;28;19918;-62
2021/08/12 04:13:07;;;;;;;;;;;13.50;93.50;;;;;;4994771;28;19921;-60
2021/08/12 04:15:33;;;;;;;;;;;13.50;93.60;;;;;;4994763;28;19968;-60
2021/08/12 04:17:59;;;;;;;;;;;13.50;93.50;;;;;;4992776;28;20396;-63
2021/08/12 04:20:25;;;;;;;;;;;13.50;93.60;;;;;;4993438;28;19918;-61
2021/08/12 04:22:50;;;;;;;;;;;13.50;93.70;;;;;;4993409;28;20412;-62
2021/08/12 04:25:16;;;;;;;;;;;13.60;93.90;;;;;;4994188;28;19918;-62
2021/08/12 04:27:42;;;;;;;;;;;13.60;93.70;;;;;;4976999;28;20505;-62
2021/08/12 04:30:09;;;;;;;;;;;13.60;93.70;;;;;;4991626;28;19968;-63
2021/08/12 04:32:37;;;;;;;;;;;13.70;93.80;;;;;;4993136;28;19925;-62
2021/08/12 04:35:04;;;;;;;;;;;13.70;93.80;;;;;;4993141;28;20386;-62
2021/08/12 04:37:45;;;;;;;;;;;13.70;93.80;;;;;;4992444;28;19917;-62
2021/08/12 04:40:12;;;;;;;;;;;13.80;93.90;;;;;;4993034;28;19918;-62
2021/08/12 04:42:37;;;;;;;;;;;13.80;93.90;;;;;;4992731;28;20024;-62
2021/08/12 04:45:03;;;;;;;;;;;13.80;93.90;;;;;;4993110;28;19957;-62
2021/08/12 04:47:29;;;;;;;;;;;13.90;94.00;;;;;;4992911;28;19922;-63
2021/08/12 04:49:54;;;;;;;;;;;14.00;94.10;;;;;;4992469;28;19925;-62
2021/08/12 04:52:20;;;;;;;;;;;14.10;94.20;;;;;;4992783;28;19976;-61
2021/08/12 04:54:46;;;;;;;;;;;14.20;94.40;;;;;;4992903;28;20405;-60
2021/08/12 04:57:12;;;;;;;;;;;14.40;94.50;;;;;;4975703;28;19921;-62
2021/08/12 04:59:38;;;;;;;;;;;14.50;94.50;;;;;;4992489;28;19930;-61
2021/08/12 05:02:03;;;;;;;;;;;14.70;94.50;;;;;;4992071;28;19922;-63
2021/08/12 05:04:29;;;;;;;;;;;14.90;94.50;;;;;;4992687;28;20318;-62
2021/08/12 05:06:54;;;;;;;;;;;15.00;94.50;;;;;;4992234;28;19929;-62
2021/08/12 05:09:21;;;;;;;;;;;15.10;94.40;;;;;;4992315;28;20009;-61
2021/08/12 05:11:47;;;;;;;;;;;15.30;94.40;;;;;;4992559;28;19929;-62
2021/08/12 05:14:12;;;;;;;;;;;15.40;94.40;;;;;;4993360;28;19918;-61
2021/08/12 05:16:38;;;;;;;;;;;15.60;94.40;;;;;;4992530;28;19926;-62
2021/08/12 05:19:03;;;;;;;;;;;15.70;94.30;;;;;;4992556;28;20087;-63
2021/08/12 05:21:29;;;;;;;;;;;15.80;94.30;;;;;;4992075;28;19922;-61
2021/08/12 05:23:55;;;;;;;;;;;15.90;94.20;;;;;;4992226;28;19921;-62
2021/08/12 05:26:21;;;;;;;;;;;16.10;94.10;;;;;;4992179;28;20510;-65
2021/08/12 05:28:47;;;;;;;;;;;16.20;93.90;;;;;;4991433;28;19934;-63
2021/08/12 05:31:13;;;;;;;;;;;16.20;93.70;;;;;;4992093;28;20339;-62
2021/08/12 05:33:39;;;;;;;;;;;16.30;93.60;;;;;;4992990;28;19997;-63
2021/08/12 05:36:05;;;;;;;;;;;16.30;93.60;;;;;;4992118;28;19925;-62
2021/08/12 05:38:31;;;;;;;;;;;16.40;93.60;;;;;;4991778;28;20009;-63
2021/08/12 05:40:57;;;;;;;;;;;16.40;93.50;;;;;;4993316;28;20181;-60
2021/08/12 05:43:23;;;;;;;;;;;16.60;93.60;;;;;;4994027;28;19925;-62
2021/08/12 05:45:49;;;;;;;;;;;16.70;93.60;;;;;;4993216;28;19918;-61
2021/08/12 05:48:15;;;;;;;;;;;16.90;93.60;;;;;;4992463;28;20016;-62
2021/08/12 05:50:44;;;;;;;;;;;17.30;94.30;;;;;;5007959;28;19917;-63
2021/08/12 05:53:14;;;;;;;;;;;17.70;94.40;;;;;;5007672;28;19922;-61
2021/08/12 05:55:40;;;;;;;;;;;18.50;95.40;;;;;;4993108;28;19920;-61
2021/08/12 05:58:06;;;;;;;;;;;19.40;94.90;;;;;;4975191;28;19918;-60
2021/08/12 06:00:32;;;;;;;;;;;20.00;94.30;;;;;;4990815;28;19929;-61
2021/08/12 06:03:07;;;;;;;;;;;20.30;92.60;;;;;;4991450;28;19924;-61
2021/08/12 06:05:34;;;;;;;;;;;20.10;91.10;;;;;;4990987;28;19918;-60
2021/08/12 06:08:04;;;;;;;;;;;19.70;90.20;;;;;;4991212;28;19918;-62
2021/08/12 06:10:32;;;;;;;;;;;19.30;89.50;;;;;;4975659;28;19945;-62
2021/08/12 06:12:58;;;;;;;;;;;19.00;89.60;;;;;;4992156;28;19933;-62
2021/08/12 06:15:24;;;;;;;;;;;18.80;89.80;;;;;;4991450;28;19918;-62
2021/08/12 06:17:50;;;;;;;;;;;18.60;89.40;;;;;;4991561;28;20016;-62
2021/08/12 06:20:16;;;;;;;;;;;18.90;91.30;;;;;;4990765;28;20021;-60
2021/08/12 06:22:42;;;;;;;;;;;20.20;93.70;;;;;;5007572;28;19924;-60
2021/08/12 06:25:08;;;;;;;;;;;21.70;93.60;;;;;;4991188;28;19918;-61
2021/08/12 06:27:35;;;;;;;;;;;23.10;92.10;;;;;;4991457;28;20370;-62
2021/08/12 06:30:01;;;;;;;;;;;23.60;87.80;;;;;;4992093;28;19928;-61
2021/08/12 06:32:28;;;;;;;;;;;23.40;83.00;;;;;;4991807;28;19922;-62
2021/08/12 06:34:54;;;;;;;;;;;23.00;81.90;;;;;;4991659;28;19937;-61
2021/08/12 06:37:20;;;;;;;;;;;22.50;80.40;;;;;;4991064;28;20346;-62
2021/08/12 06:39:46;;;;;;;;;;;22.10;79.40;;;;;;4990425;28;20013;-61
2021/08/12 06:42:11;;;;;;;;;;;21.60;78.50;;;;;;4991166;28;19921;-61
2021/08/12 06:44:53;;;;;;;;;;;21.40;80.50;;;;;;4990859;28;20012;-61
2021/08/12 06:47:19;;;;;;;;;;;22.50;86.70;;;;;;4974515;28;20005;-62
2021/08/12 06:49:49;;;;;;;;;;;24.40;87.20;;;;;;4990821;28;20004;-62
2021/08/12 06:52:15;;;;;;;;;;;26.00;82.60;;;;;;4992161;28;20029;-62
2021/08/12 06:54:41;;;;;;;;;;;26.70;78.10;;;;;;4993560;28;19921;-62
2021/08/12 06:57:08;;;;;;;;;;;27.40;76.60;;;;;;4993688;28;20386;-62
2021/08/12 06:59:35;;;;;;;;;;;28.60;75.80;;;;;;4995408;28;19922;-65
2021/08/12 07:02:01;;;;;;;;;;;29.80;73.40;;;;;;5010917;28;19956;-64
2021/08/12 07:04:26;;;;;;;;;;;30.90;69.50;;;;;;4994847;28;19949;-64
2021/08/12 07:06:52;;;;;;;;;;;31.60;64.40;;;;;;4994517;28;19925;-64
2021/08/12 07:09:18;;;;;;;;;;;32.30;62.30;;;;;;4994330;28;19944;-64
2021/08/12 07:11:49;;;;;;;;;;;33.20;60.90;;;;;;4994699;28;20435;-64
2021/08/12 07:14:15;;;;;;;;;;;34.20;57.80;;;;;;4994720;28;19917;-64
2021/08/12 07:16:41;;;;;;;;;;;34.10;52.90;;;;;;4994059;28;20378;-65
2021/08/12 07:19:06;;;;;;;;;;;33.00;49.40;;;;;;4994502;28;19918;-64
2021/08/12 07:21:34;;;;;;;;;;;31.40;48.60;;;;;;4994467;28;19918;-65
2021/08/12 07:24:02;;;;;;;;;;;30.20;49.60;;;;;;4994647;28;19941;-63
2021/08/12 07:26:28;;;;;;;;;;;30.40;53.30;;;;;;5010569;28;20371;-65
2021/08/12 07:28:53;;;;;;;;;;;31.80;52.60;;;;;;4993612;28;19918;-64
2021/08/12 07:31:21;;;;;;;;;;;33.10;51.40;;;;;;4994295;28;19968;-65
2021/08/12 07:33:46;;;;;;;;;;;34.40;50.40;;;;;;4994322;28;19922;-64
2021/08/12 07:36:13;;;;;;;;;;;35.70;48.00;;;;;;4994213;28;20004;-65
2021/08/12 07:38:38;;;;;;;;;;;37.00;46.50;;;;;;4993993;28;19945;-64
2021/08/12 07:41:04;;;;;;;;;;;37.70;43.50;;;;;;4993807;28;19925;-65
2021/08/12 07:43:31;;;;;;;;;;;38.10;42.30;;;;;;4996009;28;19918;-65
2021/08/12 07:45:56;;;;;;;;;;;37.10;38.90;;;;;;5011450;28;19972;-64
2021/08/12 07:48:23;;;;;;;;;;;35.30;38.10;;;;;;5014563;28;20004;-65
2021/08/12 07:50:49;;;;;;;;;;;34.40;41.20;;;;;;4999577;28;20353;-64
2021/08/12 07:53:15;;;;;;;;;;;35.00;42.20;;;;;;4999571;28;19921;-64
2021/08/12 07:55:41;;;;;;;;;;;35.20;41.20;;;;;;4999259;28;19921;-67
2021/08/12 07:58:06;;;;;;;;;;;35.70;41.10;;;;;;4997051;28;19925;-64
2021/08/12 08:00:32;;;;;;;;;;;36.00;40.20;;;;;;4993735;28;19922;-65
2021/08/12 08:02:58;;;;;;;;;;;36.20;39.50;;;;;;4995647;28;20353;-64
2021/08/12 08:05:25;;;;;;;;;;;35.30;37.70;;;;;;4994819;28;20294;-64
2021/08/12 08:07:53;;;;;;;;;;;34.00;37.50;;;;;;4994607;28;19924;-64
2021/08/12 08:10:20;;;;;;;;;;;32.70;37.90;;;;;;4994828;28;20378;-64
2021/08/12 08:12:46;;;;;;;;;;;31.50;38.70;;;;;;4995334;28;19921;-64
2021/08/12 08:15:12;;;;;;;;;;;31.10;41.10;;;;;;4995101;28;19940;-64
2021/08/12 08:17:38;;;;;;;;;;;31.60;42.20;;;;;;4994700;28;19918;-64
2021/08/12 08:20:05;;;;;;;;;;;33.30;44.10;;;;;;4994615;28;19941;-64
2021/08/12 08:22:31;;;;;;;;;;;35.70;43.00;;;;;;4994892;28;19918;-64
2021/08/12 08:24:57;;;;;;;;;;;37.70;40.70;;;;;;4994975;28;19917;-64
2021/08/12 08:27:23;;;;;;;;;;;39.00;38.20;;;;;;4994228;28;20370;-65
2021/08/12 08:29:48;;;;;;;;;;;39.20;35.80;;;;;;4994590;28;20373;-65
2021/08/12 08:32:15;;;;;;;;;;;39.60;35.10;;;;;;4994680;28;19922;-65
2021/08/12 08:34:41;;;;;;;;;;;40.10;34.90;;;;;;4994418;28;19917;-64
2021/08/12 08:37:07;;;;;;;;;;;40.70;34.70;;;;;;4994517;28;19940;-64
2021/08/12 08:39:33;;;;;;;;;;;41.20;33.00;;;;;;4992878;28;19918;-65
2021/08/12 08:41:59;;;;;;;;;;;41.60;33.10;;;;;;4994559;28;19925;-66
2021/08/12 08:44:25;;;;;;;;;;;42.20;32.70;;;;;;4994448;28;19925;-64
2021/08/12 08:46:51;;;;;;;;;;;42.80;32.00;;;;;;4992631;28;20298;-66
2021/08/12 08:49:19;;;;;;;;;;;43.40;31.60;;;;;;4994144;28;20409;-65
2021/08/12 08:51:45;;;;;;;;;;;44.10;31.10;;;;;;4992719;28;19918;-66
2021/08/12 08:54:11;;;;;;;;;;;44.80;30.90;;;;;;4993831;28;19925;-65
2021/08/12 08:56:40;;;;;;;;;;;44.70;29.50;;;;;;5008990;28;20290;-64
2021/08/12 08:59:07;;;;;;;;;;;44.10;29.40;;;;;;4993382;28;19972;-65
2021/08/12 09:01:32;;;;;;;;;;;42.50;28.50;;;;;;4994067;28;19918;-64
2021/08/12 09:03:58;;;;;;;;;;;41.20;29.30;;;;;;4993959;28;20452;-65
2021/08/12 09:06:24;;;;;;;;;;;40.70;29.80;;;;;;4993445;28;19922;-64
2021/08/12 09:08:49;;;;;;;;;;;41.40;31.10;;;;;;4993111;28;20259;-66
2021/08/12 09:11:15;;;;;;;;;;;42.80;31.10;;;;;;4993821;28;19924;-66
2021/08/12 09:13:40;;;;;;;;;;;43.90;30.10;;;;;;5008387;28;19925;-65
2021/08/12 09:16:26;;;;;;;;;;;44.60;29.40;;;;;;4993195;28;19948;-65
2021/08/12 09:19:09;;;;;;;;;;;44.40;29.00;;;;;;4992937;28;20009;-65
2021/08/12 09:21:35;;;;;;;;;;;43.90;28.80;;;;;;4993760;28;19968;-65
2021/08/12 09:24:00;;;;;;;;;;;44.20;29.40;;;;;;4993299;28;19957;-65
2021/08/12 09:26:28;;;;;;;;;;;44.90;29.10;;;;;;4992546;28;19914;-65
2021/08/12 09:28:55;;;;;;;;;;;45.80;29.20;;;;;;4992848;28;19997;-66
2021/08/12 09:31:22;;;;;;;;;;;45.90;27.80;;;;;;4993573;28;19976;-66
2021/08/12 09:33:53;;;;;;;;;;;45.80;28.10;;;;;;4993635;28;19980;-66
2021/08/12 09:36:38;;;;;;;;;;;46.50;28.10;;;;;;4993405;28;19984;-66
2021/08/12 09:39:09;;;;;;;;;;;46.80;27.80;;;;;;4992372;28;20336;-66
2021/08/12 09:41:38;;;;;;;;;;;47.30;27.40;;;;;;4993306;28;20408;-65
2021/08/12 09:44:03;;;;;;;;;;;47.60;27.00;;;;;;4993249;28;19918;-66
2021/08/12 09:46:34;;;;;;;;;;;47.70;26.70;;;;;;4992777;28;19921;-65
2021/08/12 09:49:00;;;;;;;;;;;47.70;26.70;;;;;;4992999;28;20551;-66
2021/08/12 09:51:28;;;;;;;;;;;48.10;26.50;;;;;;4992770;28;19917;-65
2021/08/12 09:54:02;;;;;;;;;;;48.30;26.40;;;;;;4992964;28;20381;-65
2021/08/12 09:56:27;;;;;;;;;;;48.20;26.10;;;;;;4992625;28;19918;-65
2021/08/12 09:59:03;;;;;;;;;;;48.00;26.30;;;;;;4992607;28;19944;-66
2021/08/12 10:01:29;;;;;;;;;;;48.30;26.30;;;;;;4992681;28;19922;-66
2021/08/12 10:03:55;;;;;;;;;;;48.50;26.10;;;;;;4991610;28;19924;-66
2021/08/12 10:06:22;;;;;;;;;;;47.70;25.70;;;;;;4992843;28;20405;-65
2021/08/12 10:08:48;;;;;;;;;;;47.50;26.30;;;;;;4992053;28;19925;-65
2021/08/12 10:11:25;;;;;;;;;;;48.10;26.60;;;;;;4992681;28;20378;-65
2021/08/12 10:14:04;;;;;;;;;;;49.00;26.50;;;;;;4992743;28;19970;-64
2021/08/12 10:16:31;;;;;;;;;;;49.50;25.90;;;;;;5007514;28;19918;-66
2021/08/12 10:18:57;;;;;;;;;;;49.40;25.40;;;;;;4992382;28;19917;-66
2021/08/12 10:21:23;;;;;;;;;;;49.50;25.70;;;;;;4992227;28;19921;-65
2021/08/12 10:23:51;;;;;;;;;;;49.90;25.60;;;;;;4992552;28;19922;-66
2021/08/12 10:26:23;;;;;;;;;;;50.10;25.40;;;;;;4992618;28;20338;-66
2021/08/12 10:28:51;;;;;;;;;;;50.40;25.10;;;;;;4991820;28;19917;-66
2021/08/12 10:31:21;;;;;;;;;;;50.50;25.00;;;;;;4992249;28;20378;-66
2021/08/12 10:33:48;;;;;;;;;;;50.30;24.70;;;;;;4992023;28;19922;-65
2021/08/12 10:36:15;;;;;;;;;;;49.90;24.90;;;;;;4992263;28;19925;-65
2021/08/12 10:38:41;;;;;;;;;;;49.70;24.90;;;;;;4991171;28;19964;-64
2021/08/12 10:41:06;;;;;;;;;;;49.70;24.90;;;;;;4992453;28;19954;-65
2021/08/12 10:43:32;;;;;;;;;;;49.80;25.10;;;;;;4992482;28;20005;-65
2021/08/12 10:45:59;;;;;;;;;;;50.00;25.60;;;;;;5006960;28;19922;-65
2021/08/12 10:48:25;;;;;;;;;;;50.40;25.10;;;;;;4992097;28;19969;-65
2021/08/12 10:51:01;;;;;;;;;;;50.90;24.80;;;;;;4992057;28;19918;-65
2021/08/12 10:53:26;;;;;;;;;;;50.80;24.40;;;;;;4992081;28;20012;-66
2021/08/12 10:56:00;;;;;;;;;;;50.50;24.50;;;;;;4992262;28;20489;-65
2021/08/12 10:58:33;;;;;;;;;;;50.00;24.40;;;;;;4991405;28;19918;-64
2021/08/12 11:00:59;;;;;;;;;;;48.30;24.30;;;;;;4992131;28;20060;-65
2021/08/12 11:03:34;;;;;;;;;;;47.10;25.30;;;;;;4991670;28;20386;-65
2021/08/12 11:06:02;;;;;;;;;;;47.50;25.60;;;;;;4990854;28;19933;-66
2021/08/12 11:08:46;;;;;;;;;;;48.40;25.80;;;;;;4991772;28;19913;-66
2021/08/12 11:11:11;;;;;;;;;;;49.20;25.60;;;;;;4991772;28;19917;-65
2021/08/12 11:13:37;;;;;;;;;;;50.10;25.30;;;;;;4991860;28;19918;-66
2021/08/12 11:16:03;;;;;;;;;;;50.50;24.80;;;;;;4991579;28;19918;-66
2021/08/12 11:18:42;;;;;;;;;;;50.80;24.90;;;;;;4991635;28;19929;-65
2021/08/12 11:21:26;;;;;;;;;;;50.70;24.70;;;;;;4991625;28;20005;-66
2021/08/12 11:23:52;;;;;;;;;;;48.30;23.90;;;;;;4991956;28;19964;-65
2021/08/12 11:26:17;;;;;;;;;;;45.90;25.10;;;;;;4991537;28;19957;-64
2021/08/12 11:28:44;;;;;;;;;;;44.20;25.20;;;;;;4991546;28;19972;-65
2021/08/12 11:31:17;;;;;;;;;;;42.00;25.80;;;;;;4990452;28;19925;-65
2021/08/12 11:33:44;;;;;;;;;;;40.60;27.00;;;;;;4991314;28;19922;-64
2021/08/12 11:36:10;;;;;;;;;;;40.40;28.20;;;;;;4991810;28;19918;-65
2021/08/12 11:38:36;;;;;;;;;;;41.60;29.10;;;;;;4990449;28;19918;-64
2021/08/12 11:41:02;;;;;;;;;;;42.80;28.80;;;;;;4994568;28;19924;-64
2021/08/12 11:43:27;;;;;;;;;;;43.90;28.30;;;;;;4995580;28;20298;-65
2021/08/12 11:45:55;;;;;;;;;;;44.90;28.00;;;;;;4995092;28;19918;-65
2021/08/12 11:48:21;;;;;;;;;;;44.60;27.00;;;;;;4994973;28;19925;-64
2021/08/12 11:50:46;;;;;;;;;;;44.20;27.10;;;;;;4995255;28;19918;-65
2021/08/12 11:53:14;;;;;;;;;;;43.90;27.20;;;;;;4994807;28;19922;-65
2021/08/12 11:55:41;;;;;;;;;;;44.40;27.60;;;;;;4995280;28;19978;-64
2021/08/12 11:58:06;;;;;;;;;;;45.50;27.20;;;;;;4994529;28;19918;-65
2021/08/12 12:00:33;;;;;;;;;;;45.60;26.70;;;;;;4993823;28;20381;-64
2021/08/12 12:02:59;;;;;;;;;;;43.90;25.70;;;;;;4993982;28;19950;-64
2021/08/12 12:05:26;;;;;;;;;;;41.40;26.20;;;;;;4993657;28;19921;-64
2021/08/12 12:07:53;;;;;;;;;;;39.80;27.30;;;;;;4993408;28;19949;-64
2021/08/12 12:10:23;;;;;;;;;;;39.20;28.00;;;;;;4993213;28;19913;-63
2021/08/12 12:12:48;;;;;;;;;;;38.30;28.30;;;;;;4994017;28;19961;-63
2021/08/12 12:15:30;;;;;;;;;;;37.30;29.00;;;;;;4993797;28;20409;-63
2021/08/12 12:17:56;;;;;;;;;;;36.50;29.70;;;;;;4993114;28;19953;-64
2021/08/12 12:20:23;;;;;;;;;;;35.70;30.00;;;;;;4992145;28;20409;-63
2021/08/12 12:22:56;;;;;;;;;;;35.10;30.80;;;;;;4993565;28;20436;-65
2021/08/12 12:25:22;;;;;;;;;;;34.70;31.60;;;;;;4993544;28;19922;-63
2021/08/12 12:27:48;;;;;;;;;;;34.50;32.00;;;;;;4993302;28;19925;-64
2021/08/12 12:30:14;;;;;;;;;;;34.40;32.20;;;;;;4993103;28;19925;-64
2021/08/12 12:32:41;;;;;;;;;;;34.50;32.80;;;;;;4975848;28;19918;-64
2021/08/12 12:35:08;;;;;;;;;;;34.50;33.10;;;;;;4993161;28;19918;-65
2021/08/12 12:37:34;;;;;;;;;;;34.40;33.50;;;;;;4993095;28;19914;-63
2021/08/12 12:40:00;;;;;;;;;;;34.10;33.30;;;;;;4992967;28;19925;-64
2021/08/12 12:42:30;;;;;;;;;;;33.60;33.50;;;;;;4992921;28;19922;-64
2021/08/12 12:45:04;;;;;;;;;;;33.00;34.10;;;;;;4982450;28;19925;-63
2021/08/12 12:47:30;;;;;;;;;;;32.60;35.00;;;;;;4955157;28;20335;-64
2021/08/12 12:50:06;;;;;;;;;;;32.50;35.20;;;;;;4954031;28;19918;-63
2021/08/12 12:52:31;;;;;;;;;;;32.40;35.60;;;;;;4961012;28;19929;-64
2021/08/12 12:54:58;;;;;;;;;;;32.20;35.70;;;;;;4983233;28;19927;-66
2021/08/12 12:57:33;;;;;;;;;;;32.10;36.50;;;;;;4982787;28;20286;-65
2021/08/12 12:59:59;;;;;;;;;;;32.60;37.00;;;;;;4913463;28;1808738;-70
2021/08/12 13:02:25;;;;;;;;;;;33.10;36.90;;;;;;4980571;28;19953;-70
2021/08/12 13:05:00;;;;;;;;;;;33.80;36.80;;;;;;4985457;28;19933;-70
2021/08/12 13:07:26;;;;;;;;;;;34.40;36.20;;;;;;4975491;28;20313;-70
2021/08/12 13:09:52;;;;;;;;;;;34.60;34.80;;;;;;4989323;28;20321;-70
2021/08/12 13:12:23;;;;;;;;;;;34.10;34.40;;;;;;4973263;28;19929;-70
2021/08/12 13:14:49;;;;;;;;;;;33.40;34.50;;;;;;4974361;28;19918;-71
2021/08/12 13:17:29;;;;;;;;;;;33.00;35.60;;;;;;4972155;28;19915;-69
2021/08/12 13:20:11;;;;;;;;;;;32.80;35.90;;;;;;4970445;28;19918;-70
2021/08/12 13:22:43;;;;;;;;;;;32.20;35.90;;;;;;4973721;28;20283;-71
2021/08/12 13:25:13;;;;;;;;;;;31.70;36.80;;;;;;4973984;28;19922;-69
2021/08/12 13:27:40;;;;;;;;;;;31.50;37.50;;;;;;4972776;28;19918;-71
2021/08/12 13:30:06;;;;;;;;;;;31.50;37.90;;;;;;4988453;28;20393;-70
2021/08/12 13:32:32;;;;;;;;;;;31.50;38.30;;;;;;4973120;28;20000;-72
2021/08/12 13:34:59;;;;;;;;;;;31.50;38.30;;;;;;4979450;28;19976;-70
2021/08/12 13:37:24;;;;;;;;;;;31.40;38.10;;;;;;4978362;28;19925;-70
2021/08/12 13:39:50;;;;;;;;;;;31.40;38.50;;;;;;4979282;28;19918;-71
2021/08/12 13:42:15;;;;;;;;;;;31.40;39.00;;;;;;4971942;28;20326;-71
2021/08/12 13:44:41;;;;;;;;;;;31.30;38.80;;;;;;4973362;28;19918;-69
2021/08/12 13:47:07;;;;;;;;;;;31.10;39.20;;;;;;4993711;28;19918;-71
2021/08/12 13:49:33;;;;;;;;;;;31.00;39.80;;;;;;4967063;28;19969;-71
2021/08/12 13:51:59;;;;;;;;;;;30.70;39.40;;;;;;4966559;28;19918;-71
2021/08/12 13:54:25;;;;;;;;;;;30.30;39.90;;;;;;4973007;28;19918;-71
2021/08/12 13:56:51;;;;;;;;;;;30.00;40.80;;;;;;4990104;28;20393;-69
2021/08/12 13:59:17;;;;;;;;;;;30.00;41.60;;;;;;4953905;28;19926;-72
2021/08/12 14:01:42;;;;;;;;;;;30.10;41.70;;;;;;4953909;28;19985;-71
2021/08/12 14:04:08;;;;;;;;;;;30.30;42.00;;;;;;4968836;28;20363;-69
2021/08/12 14:06:37;;;;;;;;;;;30.50;41.90;;;;;;4972537;28;20327;-70
2021/08/12 14:09:03;;;;;;;;;;;30.60;41.60;;;;;;4973088;28;19918;-69
2021/08/12 14:11:29;;;;;;;;;;;30.60;41.20;;;;;;4973274;28;19922;-71
2021/08/12 14:13:55;;;;;;;;;;;30.40;41.00;;;;;;4987651;28;19922;-71
2021/08/12 14:16:21;;;;;;;;;;;30.10;40.80;;;;;;4973123;28;19918;-70
2021/08/12 14:18:47;;;;;;;;;;;29.80;40.80;;;;;;4972382;28;20390;-70